Time;durP1;ratioP1;P1;durP2;ratioP2;P2;SDS_P1;SDS_P2;PMS_P1;PMS_P2;Temp;Humidity;BMP_temperature;BMP_pressure;BME280_temperature;BME280_humidity;BME280_pressure;Samples;Min_cycle;Max_cycle;Signal;HPM_P1;HPM_P2
2022/03/23 00:01:53;;;;;;;67.97;47.23;;;8.70;99.90;;;;;;5009927;28;20210;-76
2022/03/23 00:04:20;;;;;;;63.90;45.97;;;8.70;99.90;;;;;;5007645;28;20210;-74
2022/03/23 00:06:47;;;;;;;62.50;45.83;;;8.70;99.90;;;;;;5009572;28;20568;-73
2022/03/23 00:09:14;;;;;;;66.13;47.53;;;8.70;99.90;;;;;;5009184;28;20199;-75
2022/03/23 00:11:41;;;;;;;62.10;45.03;;;8.70;99.90;;;;;;5007832;28;20297;-73
2022/03/23 00:14:10;;;;;;;62.50;43.60;;;8.70;99.90;;;;;;5009803;28;20517;-75
2022/03/23 00:16:37;;;;;;;60.73;43.57;;;8.70;99.90;;;;;;5009372;28;20203;-75
2022/03/23 00:19:06;;;;;;;62.33;44.20;;;8.60;99.90;;;;;;5008228;28;20221;-76
2022/03/23 00:21:33;;;;;;;58.20;42.57;;;8.60;99.90;;;;;;5009287;28;20206;-77
2022/03/23 00:24:00;;;;;;;56.17;42.27;;;8.60;99.90;;;;;;5009437;28;20222;-74
2022/03/23 00:26:27;;;;;;;68.57;45.43;;;8.50;99.90;;;;;;5008907;28;20211;-76
2022/03/23 00:28:54;;;;;;;54.20;39.73;;;8.50;99.90;;;;;;5009083;28;20484;-74
2022/03/23 00:31:22;;;;;;;57.80;42.30;;;8.50;99.90;;;;;;5008955;28;20251;-75
2022/03/23 00:33:49;;;;;;;58.10;41.93;;;8.40;99.90;;;;;;5029319;28;20203;-77
2022/03/23 00:36:16;;;;;;;58.93;41.53;;;8.40;99.90;;;;;;5029189;28;20407;-76
2022/03/23 00:38:43;;;;;;;58.57;44.40;;;8.30;99.90;;;;;;5014788;28;20223;-77
2022/03/23 00:41:10;;;;;;;59.67;42.30;;;8.30;99.90;;;;;;5009539;28;20519;-77
2022/03/23 00:43:37;;;;;;;57.70;41.70;;;8.30;99.90;;;;;;5026128;28;20221;-74
2022/03/23 00:46:04;;;;;;;55.77;39.53;;;8.30;99.90;;;;;;5024255;28;20206;-74
2022/03/23 00:48:33;;;;;;;54.97;39.90;;;8.20;99.90;;;;;;5018725;28;20822;-75
2022/03/23 00:51:00;;;;;;;59.60;40.00;;;8.20;99.90;;;;;;5029709;28;20226;-77
2022/03/23 00:53:26;;;;;;;54.57;40.10;;;8.20;99.90;;;;;;5023898;28;20214;-74
2022/03/23 00:55:53;;;;;;;55.23;40.77;;;8.20;99.90;;;;;;5009271;28;20191;-75
2022/03/23 00:58:20;;;;;;;56.40;40.57;;;8.10;99.90;;;;;;5010314;28;20218;-77
2022/03/23 01:00:47;;;;;;;64.50;44.43;;;8.10;99.90;;;;;;5027366;28;20214;-76
2022/03/23 01:03:14;;;;;;;58.97;42.43;;;8.00;99.90;;;;;;5028610;28;20211;-77
2022/03/23 01:05:42;;;;;;;60.13;42.53;;;8.00;99.90;;;;;;5028920;28;20253;-77
2022/03/23 01:08:09;;;;;;;56.63;41.03;;;8.00;99.90;;;;;;5028240;28;20202;-78
2022/03/23 01:10:36;;;;;;;65.40;47.27;;;7.90;99.90;;;;;;5024892;28;20210;-74
2022/03/23 01:13:03;;;;;;;62.83;44.67;;;7.90;99.90;;;;;;5026405;28;20499;-78
2022/03/23 01:15:30;;;;;;;68.50;47.17;;;7.90;99.90;;;;;;5024976;28;20536;-74
2022/03/23 01:17:57;;;;;;;60.00;42.00;;;7.90;99.90;;;;;;5024540;28;20218;-74
2022/03/23 01:20:24;;;;;;;63.13;43.13;;;7.90;99.90;;;;;;5025577;28;20190;-74
2022/03/23 01:22:52;;;;;;;59.30;41.40;;;7.80;99.90;;;;;;5025509;28;20788;-75
2022/03/23 01:25:19;;;;;;;57.30;41.10;;;7.80;99.90;;;;;;5026003;28;20202;-78
2022/03/23 01:27:46;;;;;;;57.17;40.47;;;7.80;99.90;;;;;;5024448;28;20214;-78
2022/03/23 01:30:14;;;;;;;56.27;40.07;;;7.80;99.90;;;;;;5025210;28;20260;-78
2022/03/23 01:32:42;;;;;;;57.73;41.50;;;7.70;99.90;;;;;;5025587;28;20582;-78
2022/03/23 01:35:10;;;;;;;59.33;42.10;;;7.70;99.90;;;;;;5024186;28;20207;-73
2022/03/23 01:37:37;;;;;;;54.37;39.47;;;7.70;99.90;;;;;;5025006;28;20619;-73
2022/03/23 01:40:08;;;;;;;63.07;43.00;;;7.70;99.90;;;;;;5025601;28;20685;-74
2022/03/23 01:42:35;;;;;;;61.43;41.00;;;7.60;99.90;;;;;;5007406;28;20219;-75
2022/03/23 01:45:03;;;;;;;57.80;38.87;;;7.60;99.90;;;;;;5004532;28;20246;-74
2022/03/23 01:47:29;;;;;;;59.77;41.43;;;7.60;99.90;;;;;;5022630;28;20198;-74
2022/03/23 01:49:57;;;;;;;66.97;43.33;;;7.60;99.90;;;;;;5023714;28;20214;-76
2022/03/23 01:52:26;;;;;;;59.10;40.37;;;7.50;99.90;;;;;;5024765;28;20222;-76
2022/03/23 01:54:53;;;;;;;55.33;40.43;;;7.50;99.90;;;;;;5011583;28;20211;-76
2022/03/23 01:57:23;;;;;;;60.37;42.40;;;7.50;99.90;;;;;;5004981;28;20199;-77
2022/03/23 01:59:50;;;;;;;56.23;39.93;;;7.50;99.90;;;;;;5005668;28;20206;-78
2022/03/23 02:02:17;;;;;;;57.83;38.93;;;7.40;99.90;;;;;;5005024;28;20215;-77
2022/03/23 02:04:44;;;;;;;57.93;41.13;;;7.40;99.90;;;;;;5020379;28;20237;-78
2022/03/23 02:07:11;;;;;;;56.03;40.07;;;7.40;99.90;;;;;;5024826;28;20317;-79
2022/03/23 02:09:39;;;;;;;53.93;39.23;;;7.30;99.90;;;;;;5025752;28;20257;-74
2022/03/23 02:12:08;;;;;;;53.07;38.53;;;7.30;99.90;;;;;;5023860;28;20231;-75
2022/03/23 02:14:37;;;;;;;57.33;39.83;;;7.30;99.90;;;;;;5024769;28;20213;-75
2022/03/23 02:17:04;;;;;;;54.63;37.80;;;7.30;99.90;;;;;;5025092;28;20644;-75
2022/03/23 02:19:31;;;;;;;54.90;37.47;;;7.20;99.90;;;;;;5024154;28;20891;-75
2022/03/23 02:22:00;;;;;;;54.10;39.27;;;7.20;99.90;;;;;;5005078;28;20203;-78
2022/03/23 02:24:29;;;;;;;55.47;39.33;;;7.20;99.90;;;;;;5004014;28;20894;-76
2022/03/23 02:26:57;;;;;;;53.40;38.50;;;7.20;99.90;;;;;;5015572;28;20294;-75
2022/03/23 02:29:25;;;;;;;52.73;38.43;;;7.20;99.90;;;;;;5024630;28;20217;-75
2022/03/23 02:31:52;;;;;;;53.93;38.50;;;7.10;99.90;;;;;;5022794;28;20238;-75
2022/03/23 02:34:19;;;;;;;52.53;36.37;;;7.10;99.90;;;;;;5023173;28;20602;-74
2022/03/23 02:36:46;;;;;;;60.53;41.23;;;7.10;99.90;;;;;;5024420;28;20322;-74
2022/03/23 02:39:14;;;;;;;56.50;40.37;;;7.10;99.90;;;;;;5023842;28;20916;-74
2022/03/23 02:41:41;;;;;;;60.23;40.83;;;7.10;99.90;;;;;;5023203;28;20203;-75
2022/03/23 02:44:08;;;;;;;63.87;42.87;;;7.00;99.90;;;;;;5024937;28;20210;-77
2022/03/23 02:46:36;;;;;;;65.40;43.37;;;7.00;99.90;;;;;;5023528;28;20213;-76
2022/03/23 02:49:03;;;;;;;66.33;43.67;;;7.00;99.90;;;;;;5024245;28;20245;-76
2022/03/23 02:51:30;;;;;;;60.50;43.80;;;7.00;99.90;;;;;;5017561;28;20515;-77
2022/03/23 03:02:32;;;;;;;64.10;44.23;;;6.90;99.90;;;;;;5010281;28;20326;-74
2022/03/23 03:05:00;;;;;;;70.90;46.87;;;6.90;99.90;;;;;;5023328;28;20202;-73
2022/03/23 03:07:26;;;;;;;66.53;45.23;;;6.90;99.90;;;;;;5022299;28;20234;-74
2022/03/23 03:09:53;;;;;;;68.57;45.60;;;6.90;99.90;;;;;;5023480;28;20210;-74
2022/03/23 03:12:22;;;;;;;70.00;45.60;;;6.90;99.90;;;;;;5023420;28;20627;-75
2022/03/23 03:14:49;;;;;;;71.77;44.77;;;6.90;99.90;;;;;;5022857;28;20503;-75
2022/03/23 03:17:17;;;;;;;67.13;46.20;;;6.90;99.90;;;;;;5022344;28;20321;-74
2022/03/23 03:19:43;;;;;;;61.30;42.47;;;6.90;99.90;;;;;;5024019;28;20214;-75
2022/03/23 03:22:10;;;;;;;64.07;44.47;;;6.90;99.90;;;;;;5023481;28;20209;-74
2022/03/23 03:24:37;;;;;;;64.63;42.13;;;6.90;99.90;;;;;;5017592;28;20222;-74
2022/03/23 03:27:04;;;;;;;57.10;39.87;;;6.80;99.90;;;;;;5003896;28;20242;-73
2022/03/23 03:29:32;;;;;;;63.77;42.80;;;6.80;99.90;;;;;;5002825;28;20219;-74
2022/03/23 03:31:59;;;;;;;58.60;40.43;;;6.80;99.90;;;;;;5022736;28;20600;-75
2022/03/23 03:34:26;;;;;;;63.73;42.13;;;6.80;99.90;;;;;;5021909;28;20202;-74
2022/03/23 03:36:52;;;;;;;60.67;41.23;;;6.70;99.90;;;;;;5022692;28;20205;-75
2022/03/23 03:39:19;;;;;;;58.63;41.13;;;6.70;99.90;;;;;;5023706;28;20202;-74
2022/03/23 03:41:46;;;;;;;53.67;37.83;;;6.70;99.90;;;;;;5007405;28;20203;-74
2022/03/23 03:44:12;;;;;;;57.63;38.70;;;6.70;99.90;;;;;;5003641;28;20210;-76
2022/03/23 03:46:41;;;;;;;61.53;42.03;;;6.60;99.90;;;;;;5003112;28;20234;-76
2022/03/23 03:49:08;;;;;;;60.87;41.83;;;6.60;99.90;;;;;;5016962;28;20264;-77
2022/03/23 03:51:35;;;;;;;62.73;42.10;;;6.60;99.90;;;;;;5023277;28;20872;-74
2022/03/23 03:54:02;;;;;;;66.97;42.67;;;6.60;99.90;;;;;;5023314;28;20285;-74
2022/03/23 03:56:29;;;;;;;62.23;42.87;;;6.50;99.90;;;;;;5015194;28;20369;-77
2022/03/23 03:58:56;;;;;;;65.27;43.43;;;6.50;99.90;;;;;;5003232;28;20591;-77
2022/03/23 04:01:22;;;;;;;63.83;42.30;;;6.50;99.90;;;;;;5010202;28;20210;-75
2022/03/23 04:03:50;;;;;;;60.90;42.43;;;6.50;99.90;;;;;;5022448;28;20202;-74
2022/03/23 04:06:17;;;;;;;61.13;41.63;;;6.50;99.90;;;;;;5021756;28;20238;-74
2022/03/23 04:08:44;;;;;;;61.20;41.90;;;6.40;99.90;;;;;;5023341;28;20206;-76
2022/03/23 04:11:10;;;;;;;60.10;41.23;;;6.40;99.90;;;;;;5022952;28;20203;-76
2022/03/23 04:13:37;;;;;;;62.40;40.07;;;6.40;99.90;;;;;;5023119;28;20226;-77
2022/03/23 04:16:04;;;;;;;58.60;40.93;;;6.40;99.90;;;;;;5018518;28;20207;-75
2022/03/23 04:18:31;;;;;;;58.20;39.63;;;6.30;99.90;;;;;;5002847;28;20206;-74
2022/03/23 04:20:59;;;;;;;57.43;39.40;;;6.30;99.90;;;;;;5003505;28;20211;-76
2022/03/23 04:23:26;;;;;;;62.97;41.80;;;6.30;99.90;;;;;;5002779;28;20222;-75
2022/03/23 04:25:53;;;;;;;55.73;39.33;;;6.30;99.90;;;;;;5001942;28;20203;-76
2022/03/23 04:28:20;;;;;;;58.83;41.07;;;6.30;99.90;;;;;;5018403;28;20225;-76
2022/03/23 04:30:47;;;;;;;62.13;42.07;;;6.20;99.90;;;;;;5021920;28;20285;-75
2022/03/23 04:33:14;;;;;;;58.17;39.40;;;6.20;99.90;;;;;;5020788;28;20234;-73
2022/03/23 04:35:41;;;;;;;57.80;39.97;;;6.20;99.90;;;;;;5003337;28;20298;-74
2022/03/23 04:38:09;;;;;;;59.43;40.30;;;6.10;99.90;;;;;;5001542;28;20214;-74
2022/03/23 04:40:36;;;;;;;59.40;40.60;;;6.10;99.90;;;;;;5021100;28;20210;-74
2022/03/23 04:43:03;;;;;;;56.00;39.67;;;6.10;99.90;;;;;;5022786;28;20515;-74
2022/03/23 04:45:30;;;;;;;57.77;38.57;;;6.10;99.90;;;;;;5025784;28;20203;-74
2022/03/23 04:47:57;;;;;;;57.13;38.50;;;6.00;99.90;;;;;;5025170;28;20215;-78
2022/03/23 04:50:23;;;;;;;57.23;38.90;;;6.00;99.90;;;;;;5026719;28;20203;-73
2022/03/23 04:52:52;;;;;;;64.53;40.97;;;6.00;99.90;;;;;;5025630;28;20639;-73
2022/03/23 04:55:20;;;;;;;62.30;44.20;;;5.90;99.90;;;;;;5025053;28;20218;-75
2022/03/23 04:57:47;;;;;;;65.20;42.37;;;5.90;99.90;;;;;;5026618;28;20202;-74
2022/03/23 05:00:16;;;;;;;61.17;41.30;;;5.90;99.90;;;;;;5025462;28;20659;-75
2022/03/23 05:02:43;;;;;;;53.50;39.00;;;5.90;99.90;;;;;;5014351;28;20222;-75
2022/03/23 05:05:12;;;;;;;62.50;42.30;;;5.90;99.90;;;;;;5006597;28;20203;-76
2022/03/23 05:07:39;;;;;;;57.50;38.43;;;5.80;99.90;;;;;;5005495;28;20319;-74
2022/03/23 05:10:08;;;;;;;58.60;39.40;;;5.80;99.90;;;;;;5005313;28;20211;-74
2022/03/23 05:12:36;;;;;;;59.80;39.87;;;5.80;99.90;;;;;;5023853;28;20705;-74
2022/03/23 05:15:04;;;;;;;56.27;37.77;;;5.80;99.90;;;;;;5025367;28;20195;-74
2022/03/23 05:17:31;;;;;;;64.90;41.53;;;5.70;99.90;;;;;;5025696;28;20874;-73
2022/03/23 05:19:58;;;;;;;61.60;41.63;;;5.70;99.90;;;;;;5024462;28;20214;-74
2022/03/23 05:22:25;;;;;;;57.37;38.97;;;5.70;99.90;;;;;;5025786;28;20640;-75
2022/03/23 05:24:52;;;;;;;60.07;41.70;;;5.70;99.90;;;;;;5025858;28;20206;-75
2022/03/23 05:27:19;;;;;;;67.77;43.67;;;5.70;99.90;;;;;;5024035;28;20202;-74
2022/03/23 05:29:47;;;;;;;60.57;40.63;;;5.70;99.90;;;;;;5025899;28;20203;-74
2022/03/23 05:32:17;;;;;;;59.80;41.10;;;5.70;99.90;;;;;;5025343;28;20640;-76
2022/03/23 05:34:44;;;;;;;61.57;40.63;;;5.60;99.90;;;;;;5025321;28;20314;-74
2022/03/23 05:37:11;;;;;;;55.03;37.17;;;5.60;99.90;;;;;;5024641;28;20221;-74
2022/03/23 05:39:38;;;;;;;60.83;39.90;;;5.60;99.90;;;;;;5025335;28;20217;-75
2022/03/23 05:42:05;;;;;;;55.47;37.77;;;5.60;99.90;;;;;;5019744;28;20207;-76
2022/03/23 05:44:32;;;;;;;57.57;39.77;;;5.60;99.90;;;;;;5015141;28;20211;-76
2022/03/23 05:47:00;;;;;;;72.30;44.90;;;5.60;99.90;;;;;;5025732;28;20313;-75
2022/03/23 05:49:28;;;;;;;62.93;40.10;;;5.60;99.90;;;;;;5023281;28;20700;-75
2022/03/23 05:51:55;;;;;;;59.55;39.30;;;5.60;99.90;;;;;;5025686;28;20442;-75
2022/03/23 05:54:22;;;;;;;63.23;42.27;;;5.60;99.90;;;;;;5016814;28;20440;-74
2022/03/23 05:56:49;;;;;;;58.57;39.07;;;5.60;99.90;;;;;;5004866;28;20199;-74
2022/03/23 05:59:16;;;;;;;60.73;40.47;;;5.50;99.90;;;;;;5004687;28;20214;-74
2022/03/23 06:01:43;;;;;;;60.10;39.23;;;5.60;99.90;;;;;;5005353;28;20203;-76
2022/03/23 06:04:12;;;;;;;60.50;40.03;;;5.60;99.90;;;;;;5004921;28;20203;-74
2022/03/23 06:06:38;;;;;;;60.03;39.67;;;5.60;99.90;;;;;;5004438;28;20242;-74
2022/03/23 06:09:06;;;;;;;58.70;40.27;;;5.60;99.90;;;;;;5004579;28;20228;-74
2022/03/23 06:11:33;;;;;;;57.03;39.57;;;5.60;99.90;;;;;;5004530;28;20254;-74
2022/03/23 06:14:00;;;;;;;59.00;40.10;;;5.60;99.90;;;;;;5004424;28;20234;-75
2022/03/23 06:16:27;;;;;;;62.57;40.70;;;5.60;99.90;;;;;;5020655;28;20217;-74
2022/03/23 06:18:53;;;;;;;64.60;42.30;;;5.60;99.90;;;;;;5024544;28;20210;-75
2022/03/23 06:21:23;;;;;;;62.53;41.80;;;5.60;99.90;;;;;;5006360;28;20533;-75
2022/03/23 06:23:49;;;;;;;64.07;41.27;;;5.60;99.90;;;;;;5007132;28;20207;-74
2022/03/23 06:26:16;;;;;;;62.03;40.87;;;5.60;99.90;;;;;;5024465;28;20203;-75
2022/03/23 06:28:43;;;;;;;61.33;38.70;;;5.70;99.90;;;;;;5021590;28;20490;-76
2022/03/23 06:31:10;;;;;;;58.93;39.07;;;5.70;99.90;;;;;;5004024;28;20199;-75
2022/03/23 06:33:36;;;;;;;60.63;41.27;;;5.70;99.90;;;;;;5004718;28;20231;-75
2022/03/23 06:36:03;;;;;;;62.07;41.73;;;5.80;99.90;;;;;;5004147;28;20245;-75
2022/03/23 06:38:32;;;;;;;63.40;41.23;;;5.80;99.90;;;;;;5003887;28;20215;-75
2022/03/23 06:40:58;;;;;;;60.83;41.40;;;5.90;99.90;;;;;;5024429;28;20212;-77
2022/03/23 06:43:26;;;;;;;62.27;42.97;;;5.90;99.90;;;;;;5023789;28;20206;-73
2022/03/23 06:45:53;;;;;;;65.73;41.40;;;5.90;99.90;;;;;;5022675;28;20207;-74
2022/03/23 06:48:20;;;;;;;62.53;42.77;;;6.00;99.90;;;;;;5024090;28;20202;-75
2022/03/23 06:50:46;;;;;;;63.83;41.93;;;6.00;99.90;;;;;;5024162;28;20560;-77
2022/03/23 06:53:13;;;;;;;63.80;42.10;;;6.10;99.90;;;;;;5022060;28;20229;-76
2022/03/23 06:55:41;;;;;;;61.40;40.17;;;6.10;99.90;;;;;;5023958;28;20618;-77
2022/03/23 06:58:08;;;;;;;69.20;41.67;;;6.20;99.90;;;;;;5022578;28;20873;-76
2022/03/23 07:00:36;;;;;;;65.93;43.57;;;6.20;99.90;;;;;;5023153;28;20213;-76
2022/03/23 07:03:03;;;;;;;64.30;41.37;;;6.30;99.90;;;;;;5023638;28;20206;-76
2022/03/23 07:05:30;;;;;;;64.07;42.57;;;6.40;99.90;;;;;;5022565;28;20206;-77
2022/03/23 07:10:43;;;;;;;64.63;41.70;;;6.60;99.90;;;;;;5008700;28;20237;-78
2022/03/23 07:13:10;;;;;;;74.50;47.47;;;6.60;99.90;;;;;;5003247;28;20231;-78
2022/03/23 07:15:36;;;;;;;74.57;46.10;;;6.70;99.90;;;;;;5004332;28;20210;-79
2022/03/23 07:18:03;;;;;;;71.57;44.27;;;6.80;99.90;;;;;;5003102;28;20305;-75
2022/03/23 07:20:30;;;;;;;75.63;46.07;;;6.90;99.90;;;;;;5003911;28;20230;-76
2022/03/23 07:22:57;;;;;;;70.23;46.37;;;7.10;99.90;;;;;;5015997;28;20687;-77
2022/03/23 07:25:24;;;;;;;72.03;47.13;;;7.20;99.90;;;;;;5023809;28;20209;-76
2022/03/23 07:27:52;;;;;;;72.43;43.73;;;7.40;99.90;;;;;;5023614;28;20209;-77
2022/03/23 07:30:20;;;;;;;65.00;43.20;;;7.50;99.90;;;;;;5010068;28;20225;-78
2022/03/23 07:32:46;;;;;;;68.70;43.77;;;7.70;99.90;;;;;;5005379;28;20230;-73
2022/03/23 07:35:13;;;;;;;74.23;44.37;;;7.80;99.90;;;;;;5021920;28;20202;-75
2022/03/23 07:37:40;;;;;;;66.83;43.10;;;8.00;99.90;;;;;;5021990;28;20889;-75
2022/03/23 07:40:07;;;;;;;72.37;43.20;;;8.10;99.90;;;;;;5023753;28;20202;-75
2022/03/23 07:42:34;;;;;;;66.63;41.13;;;8.20;99.90;;;;;;5022558;28;20199;-76
2022/03/23 07:45:02;;;;;;;65.00;41.13;;;8.30;99.90;;;;;;5022606;28;20206;-77
2022/03/23 07:47:29;;;;;;;62.67;39.53;;;8.50;99.90;;;;;;5023354;28;20207;-77
2022/03/23 07:49:56;;;;;;;54.10;37.00;;;8.60;99.90;;;;;;5021922;28;20615;-77
2022/03/23 07:52:23;;;;;;;54.23;36.33;;;8.80;99.90;;;;;;5023155;28;20202;-76
2022/03/23 07:54:49;;;;;;;54.27;35.97;;;9.00;99.90;;;;;;4939761;28;20576;-76
2022/03/23 07:57:16;;;;;;;52.73;36.97;;;9.20;99.90;;;;;;5022995;28;20210;-75
2022/03/23 07:59:43;;;;;;;53.00;34.37;;;9.30;99.90;;;;;;5023298;28;20206;-76
2022/03/23 08:02:11;;;;;;;52.07;34.77;;;9.40;99.90;;;;;;5022860;28;20199;-76
2022/03/23 08:04:38;;;;;;;50.47;33.20;;;9.50;99.90;;;;;;5022540;28;20205;-74
2022/03/23 08:07:05;;;;;;;53.30;34.30;;;9.60;99.90;;;;;;5022191;28;20231;-76
2022/03/23 08:09:32;;;;;;;48.60;33.80;;;9.70;99.90;;;;;;5014357;28;20811;-76
2022/03/23 08:11:59;;;;;;;44.23;32.73;;;9.80;99.90;;;;;;5015266;28;20215;-75
2022/03/23 08:14:26;;;;;;;46.87;32.10;;;9.90;99.90;;;;;;5003291;28;20231;-75
2022/03/23 08:16:53;;;;;;;49.60;33.40;;;10.00;99.90;;;;;;5003111;28;20203;-76
2022/03/23 08:19:22;;;;;;;43.30;30.07;;;10.10;99.90;;;;;;5004763;28;20199;-74
2022/03/23 08:21:49;;;;;;;44.87;31.87;;;10.20;99.90;;;;;;5008535;28;20210;-75
2022/03/23 08:24:15;;;;;;;42.93;32.40;;;10.40;99.90;;;;;;5025875;28;20195;-74
2022/03/23 08:26:42;;;;;;;43.00;30.00;;;10.50;99.90;;;;;;5026489;28;20218;-75
2022/03/23 08:29:09;;;;;;;42.03;30.80;;;10.70;99.90;;;;;;5021841;28;20206;-73
2022/03/23 08:31:36;;;;;;;42.63;30.50;;;10.80;99.90;;;;;;5007418;28;20317;-75
2022/03/23 08:34:03;;;;;;;44.30;30.90;;;10.90;99.90;;;;;;5024947;28;20799;-74
2022/03/23 08:36:32;;;;;;;42.67;31.07;;;11.00;99.90;;;;;;5015962;28;20222;-76
2022/03/23 08:38:59;;;;;;;40.03;27.57;;;11.10;99.90;;;;;;5020126;28;20309;-73
2022/03/23 08:41:27;;;;;;;38.20;28.13;;;11.30;99.90;;;;;;5019070;28;20215;-75
2022/03/23 08:43:54;;;;;;;41.13;28.63;;;11.40;99.90;;;;;;5019072;28;20214;-76
2022/03/23 08:46:21;;;;;;;38.03;28.60;;;11.60;99.90;;;;;;5017519;28;20533;-74
2022/03/23 08:48:49;;;;;;;38.77;27.63;;;11.80;99.90;;;;;;5016433;28;20214;-74
2022/03/23 08:51:15;;;;;;;38.63;27.17;;;12.00;99.90;;;;;;5015102;28;20274;-75
2022/03/23 08:53:44;;;;;;;35.77;27.23;;;12.20;99.90;;;;;;5014094;28;20430;-76
2022/03/23 08:56:11;;;;;;;33.47;25.13;;;12.40;99.90;;;;;;5016863;28;20528;-76
2022/03/23 08:58:38;;;;;;;39.73;26.23;;;12.60;99.90;;;;;;5013216;28;20213;-77
2022/03/23 09:01:05;;;;;;;38.43;27.07;;;12.80;99.90;;;;;;5020664;28;20257;-76
2022/03/23 09:03:32;;;;;;;35.57;26.13;;;12.90;99.90;;;;;;5014590;28;20194;-75
2022/03/23 09:05:59;;;;;;;36.10;25.50;;;13.10;99.90;;;;;;5017247;28;20329;-75
2022/03/23 09:08:26;;;;;;;33.37;25.47;;;13.30;99.90;;;;;;5019680;28;20613;-75
2022/03/23 09:10:54;;;;;;;34.17;25.33;;;13.50;99.90;;;;;;5025127;28;20622;-75
2022/03/23 09:13:22;;;;;;;34.53;24.73;;;13.60;99.90;;;;;;5031577;28;20274;-76
2022/03/23 09:15:48;;;;;;;36.63;27.13;;;13.80;99.90;;;;;;5026354;28;20211;-75
2022/03/23 09:18:15;;;;;;;28.37;23.30;;;13.90;99.90;;;;;;5025617;28;20218;-75
2022/03/23 09:20:42;;;;;;;30.47;23.00;;;14.10;99.90;;;;;;5012941;28;20649;-76
2022/03/23 09:23:09;;;;;;;35.30;23.97;;;14.20;99.90;;;;;;5006623;28;20210;-74
2022/03/23 09:25:36;;;;;;;32.63;23.60;;;14.40;99.90;;;;;;5006321;28;20321;-73
2022/03/23 09:28:05;;;;;;;31.10;22.80;;;14.50;99.90;;;;;;5005835;28;20211;-75
2022/03/23 09:30:32;;;;;;;33.23;23.80;;;14.70;99.90;;;;;;5005847;28;20216;-76
2022/03/23 09:33:00;;;;;;;32.73;23.90;;;14.80;99.90;;;;;;5005795;28;20219;-75
2022/03/23 09:35:28;;;;;;;32.30;24.00;;;15.00;99.90;;;;;;5015269;28;20246;-74
2022/03/23 09:37:56;;;;;;;30.60;22.80;;;15.10;99.90;;;;;;5014589;28;20292;-75
2022/03/23 09:40:25;;;;;;;30.17;22.47;;;15.30;99.90;;;;;;5014355;28;20321;-75
2022/03/23 09:42:53;;;;;;;31.50;22.77;;;15.40;99.90;;;;;;5009219;28;20332;-75
2022/03/23 09:45:35;;;;;;;32.53;22.50;;;15.60;99.90;;;;;;5009970;28;20700;-77
2022/03/23 09:48:03;;;;;;;27.27;20.97;;;15.70;99.90;;;;;;5023418;28;20525;-76
2022/03/23 09:50:32;;;;;;;29.40;21.50;;;15.90;99.90;;;;;;5023248;28;20207;-76
2022/03/23 09:52:59;;;;;;;32.28;22.50;;;16.20;99.90;;;;;;5017848;28;20209;-75
2022/03/23 09:55:26;;;;;;;33.00;22.25;;;16.40;99.90;;;;;;5021431;28;20230;-75
2022/03/23 09:57:55;;;;;;;27.13;21.55;;;16.50;99.90;;;;;;5013653;28;20211;-75
2022/03/23 10:00:27;;;;;;;25.45;19.38;;;16.70;99.90;;;;;;5010935;28;20298;-75
2022/03/23 10:03:41;;;;;;;26.33;19.52;;;16.90;99.90;;;;;;5012958;28;20251;-75
2022/03/23 10:06:39;;;;;;;31.60;20.17;;;17.10;99.90;;;;;;5013003;28;20321;-76
2022/03/23 10:09:29;;;;;;;23.65;17.13;;;17.40;99.90;;;;;;5022293;28;20221;-76
2022/03/23 10:12:55;;;;;;;24.38;16.65;;;17.60;99.90;;;;;;5024352;28;20545;-77
2022/03/23 10:16:04;;;;;;;21.55;15.52;;;17.80;99.90;;;;;;5004673;28;20234;-75
2022/03/23 10:18:54;;;;;;;22.20;15.13;;;18.00;99.90;;;;;;5016866;28;20199;-75
2022/03/23 10:21:22;;;;;;;20.63;15.57;;;18.20;99.90;;;;;;5004941;28;20203;-76
2022/03/23 10:24:14;;;;;;;19.88;14.60;;;18.40;99.90;;;;;;5015315;28;20198;-76
2022/03/23 10:26:42;;;;;;;23.73;15.10;;;18.60;99.90;;;;;;5018170;28;20230;-78
2022/03/23 10:29:20;;;;;;;21.85;15.40;;;18.80;99.90;;;;;;5007344;28;20203;-77
2022/03/23 10:31:47;;;;;;;19.35;14.27;;;18.90;99.90;;;;;;5013838;28;20331;-75
2022/03/23 10:34:15;;;;;;;21.52;15.48;;;18.90;99.90;;;;;;5017913;28;20223;-75
2022/03/23 10:36:52;;;;;;;23.35;16.63;;;19.10;99.90;;;;;;5004132;28;20525;-76
2022/03/23 10:39:26;;;;;;;22.45;16.08;;;19.10;99.90;;;;;;5024898;28;20233;-75
2022/03/23 10:41:58;;;;;;;20.30;14.88;;;19.00;99.90;;;;;;5023316;28;20191;-76
2022/03/23 10:44:25;;;;;;;20.92;16.13;;;18.90;99.90;;;;;;5023687;28;20587;-77
2022/03/23 10:46:52;;;;;;;21.30;15.30;;;18.90;99.90;;;;;;5023380;28;20221;-75
2022/03/23 10:49:31;;;;;;;26.30;16.08;;;19.10;99.90;;;;;;5025687;28;20203;-83
2022/03/23 10:52:09;;;;;;;22.58;15.43;;;19.20;99.90;;;;;;5023123;28;20202;-76
2022/03/23 10:54:35;;;;;;;19.77;14.43;;;19.40;99.90;;;;;;5024295;28;20531;-77
2022/03/23 10:57:03;;;;;;;23.42;15.43;;;19.50;99.90;;;;;;5022817;28;20206;-77
2022/03/23 10:59:31;;;;;;;20.35;14.88;;;19.60;99.90;;;;;;5022916;28;20525;-78
2022/03/23 11:02:00;;;;;;;18.50;14.48;;;19.80;99.90;;;;;;5004074;28;20619;-78
2022/03/23 11:04:30;;;;;;;20.98;15.30;;;19.90;99.90;;;;;;5003344;28;20317;-77
2022/03/23 11:06:58;;;;;;;21.15;14.52;;;19.90;99.90;;;;;;4996934;28;20425;-78
2022/03/23 11:18:04;;;;;;;20.30;12.95;;;20.10;99.90;;;;;;5006985;28;20209;-78
2022/03/23 11:20:44;;;;;;;17.00;12.57;;;20.10;99.90;;;;;;5023072;28;20209;-77
2022/03/23 11:23:24;;;;;;;19.20;12.30;;;20.10;99.90;;;;;;5023274;28;20237;-79
2022/03/23 11:25:52;;;;;;;23.02;11.70;;;20.30;99.90;;;;;;5023282;28;20213;-81
2022/03/23 11:28:20;;;;;;;21.17;10.82;;;20.40;99.90;;;;;;5022000;28;20210;-79
2022/03/23 11:30:49;;;;;;;19.60;10.13;;;20.40;99.90;;;;;;5020919;28;20215;-77
2022/03/23 11:33:18;;;;;;;17.05;11.00;;;20.50;99.90;;;;;;5022052;28;20226;-77
2022/03/23 11:35:48;;;;;;;22.65;9.85;;;20.50;99.90;;;;;;5023937;28;20238;-78
2022/03/23 11:38:17;;;;;;;20.88;10.57;;;20.60;99.90;;;;;;5022873;28;20210;-78
2022/03/23 11:40:45;;;;;;;31.90;12.30;;;20.60;99.90;;;;;;5022724;28;20214;-77
2022/03/23 11:43:12;;;;;;;20.77;11.52;;;20.60;99.90;;;;;;5021881;28;20619;-76
2022/03/23 11:45:45;;;;;;;22.58;12.07;;;20.70;99.90;;;;;;5044090;23;20225;-80
2022/03/23 11:48:20;;;;;;;27.63;12.23;;;20.70;99.90;;;;;;4993528;28;20214;-75
2022/03/23 11:51:03;;;;;;;21.65;13.77;;;20.90;99.90;;;;;;5003084;28;20223;-76
2022/03/23 11:53:38;;;;;;;20.45;12.25;;;21.00;99.90;;;;;;4983505;28;20318;-75
2022/03/23 11:56:06;;;;;;;26.67;13.18;;;21.10;99.90;;;;;;4983296;28;20219;-76
2022/03/23 11:58:37;;;;;;;24.42;13.38;;;21.20;99.90;;;;;;4983786;28;20203;-76
2022/03/23 12:01:09;;;;;;;17.52;11.02;;;21.10;99.90;;;;;;4981829;28;20204;-75
2022/03/23 12:03:53;;;;;;;22.77;11.52;;;21.10;99.90;;;;;;4984017;28;20239;-75
2022/03/23 12:06:23;;;;;;;24.30;11.23;;;21.00;99.90;;;;;;4982798;28;20924;-74
2022/03/23 12:08:53;;;;;;;16.48;11.20;;;20.90;99.90;;;;;;4983783;28;20211;-75
2022/03/23 12:11:51;;;;;;;19.23;12.02;;;20.90;99.90;;;;;;4982681;28;20260;-76
2022/03/23 12:14:23;;;;;;;20.52;11.65;;;20.80;99.90;;;;;;4983432;28;20679;-76
2022/03/23 12:17:11;;;;;;;25.55;12.60;;;20.70;99.90;;;;;;4983484;28;20210;-75
2022/03/23 12:20:05;;;;;;;21.58;12.20;;;20.70;99.90;;;;;;4958833;28;20203;-75
2022/03/23 12:23:17;;;;;;;22.23;11.95;;;20.60;99.90;;;;;;4982595;28;20212;-75
2022/03/23 12:25:55;;;;;;;21.48;11.88;;;20.60;99.90;;;;;;4980101;28;21059;-76
2022/03/23 12:28:33;;;;;;;22.63;12.50;;;20.70;99.90;;;;;;4982392;28;20301;-76
2022/03/23 12:31:10;;;;;;;18.70;12.00;;;20.80;99.90;;;;;;4982966;28;20203;-77
2022/03/23 12:33:58;;;;;;;21.58;12.80;;;21.10;99.90;;;;;;4982699;28;20203;-76
2022/03/23 12:39:23;;;;;;;18.38;11.07;;;21.20;99.90;;;;;;4980761;28;20211;-76
2022/03/23 12:41:51;;;;;;;22.75;12.85;;;21.20;99.90;;;;;;4975006;28;20262;-77
2022/03/23 12:44:19;;;;;;;19.73;12.63;;;21.20;99.90;;;;;;4982386;28;20204;-76
2022/03/23 12:46:46;;;;;;;19.15;12.05;;;21.20;99.90;;;;;;4984411;28;20242;-75
2022/03/23 12:57:52;;;;;;;20.25;11.43;;;21.30;99.90;;;;;;4992807;28;20202;-76
2022/03/23 13:00:28;;;;;;;18.60;12.07;;;21.20;99.90;;;;;;4982520;28;20295;-76
2022/03/23 13:03:31;;;;;;;19.30;11.88;;;21.30;99.90;;;;;;4982497;28;20223;-76
2022/03/23 13:06:09;;;;;;;26.92;12.82;;;21.40;99.90;;;;;;4984497;28;20195;-77
2022/03/23 13:08:46;;;;;;;15.02;11.63;;;21.20;99.90;;;;;;4986154;28;20214;-75
2022/03/23 13:11:13;;;;;;;20.20;12.20;;;21.30;99.90;;;;;;4985727;28;20226;-76
2022/03/23 13:13:42;;;;;;;19.15;12.27;;;21.20;99.90;;;;;;4986590;28;20210;-76
2022/03/23 13:16:10;;;;;;;18.63;12.05;;;21.30;99.90;;;;;;4986244;28;20238;-76